Time;durP1;ratioP1;P1;durP2;ratioP2;P2;SDS_P1;SDS_P2;PMS_P1;PMS_P2;Temp;Humidity;BMP_temperature;BMP_pressure;BME280_temperature;BME280_humidity;BME280_pressure;Samples;Min_cycle;Max_cycle;Signal;HPM_P1;HPM_P2
2022/09/21 00:00:11;;;;;;;8.88;4.75;;;20.40;57.60;;;;;;6133345;28;82971;-59
2022/09/21 00:03:12;;;;;;;10.95;5.50;;;20.50;57.60;;;;;;6136271;28;80185;-59
2022/09/21 00:06:12;;;;;;;10.77;5.55;;;20.40;57.60;;;;;;6136229;28;83514;-59
2022/09/21 00:09:13;;;;;;;10.57;5.95;;;20.50;57.60;;;;;;6139112;28;80372;-59
2022/09/21 00:12:14;;;;;;;10.27;5.78;;;20.50;57.60;;;;;;6133066;28;80477;-59
2022/09/21 00:15:16;;;;;;;9.35;5.38;;;20.50;57.60;;;;;;6150034;28;80433;-59
2022/09/21 00:18:17;;;;;;;9.80;4.90;;;20.50;57.60;;;;;;6150956;28;80925;-58
2022/09/21 00:21:18;;;;;;;8.73;5.20;;;20.50;57.60;;;;;;6150825;28;80428;-59
2022/09/21 00:24:18;;;;;;;8.48;5.22;;;20.50;57.50;;;;;;6150699;28;80530;-58
2022/09/21 00:27:18;;;;;;;9.35;5.13;;;20.50;57.60;;;;;;6148737;28;80944;-57
2022/09/21 00:30:19;;;;;;;12.13;5.78;;;20.50;57.60;;;;;;6143791;28;80837;-58
2022/09/21 00:33:19;;;;;;;11.38;5.35;;;20.40;57.60;;;;;;6150648;28;81072;-57
2022/09/21 00:36:20;;;;;;;7.18;4.22;;;20.50;57.60;;;;;;6151411;28;81551;-57
2022/09/21 00:39:21;;;;;;;10.68;5.97;;;20.50;57.60;;;;;;6145711;28;81675;-58
2022/09/21 00:42:21;;;;;;;7.78;4.43;;;20.50;57.60;;;;;;6132271;28;80191;-56
2022/09/21 00:45:22;;;;;;;8.88;4.75;;;20.50;57.60;;;;;;6142121;28;87943;-58
2022/09/21 00:48:22;;;;;;;8.35;4.75;;;20.50;57.60;;;;;;6142229;28;80461;-58
2022/09/21 00:51:23;;;;;;;10.18;5.80;;;20.50;57.60;;;;;;6139299;28;80548;-59
2022/09/21 00:54:23;;;;;;;8.50;5.07;;;20.40;57.60;;;;;;6152724;28;80860;-59
2022/09/21 00:57:24;;;;;;;9.30;5.63;;;20.50;57.60;;;;;;6142236;28;86372;-59
2022/09/21 01:00:24;;;;;;;7.70;4.65;;;20.40;57.60;;;;;;6138825;28;80392;-59
2022/09/21 01:03:24;;;;;;;10.20;5.68;;;20.40;57.60;;;;;;6137907;28;80872;-58
2022/09/21 01:06:25;;;;;;;6.18;4.30;;;20.40;57.50;;;;;;6142248;28;81315;-59
2022/09/21 01:09:26;;;;;;;9.73;4.45;;;20.50;57.60;;;;;;6139991;28;80639;-59
2022/09/21 01:12:26;;;;;;;6.97;4.35;;;20.40;57.50;;;;;;6137283;28;83258;-59
2022/09/21 01:15:27;;;;;;;13.02;5.15;;;20.40;58.10;;;;;;6141223;28;80224;-58
2022/09/21 01:18:27;;;;;;;9.82;5.30;;;20.40;57.50;;;;;;6152831;28;81218;-58
2022/09/21 01:21:28;;;;;;;11.25;4.75;;;20.40;57.50;;;;;;6154475;28;80692;-57
2022/09/21 01:24:28;;;;;;;6.40;4.03;;;20.40;57.50;;;;;;6149224;28;84772;-57
2022/09/21 01:27:29;;;;;;;9.00;4.65;;;20.40;57.50;;;;;;6147570;28;80887;-58
2022/09/21 01:30:29;;;;;;;8.32;4.43;;;20.40;57.50;;;;;;6141309;28;80487;-57
2022/09/21 01:33:30;;;;;;;9.48;4.47;;;20.40;57.40;;;;;;6151870;28;80308;-57
2022/09/21 01:36:30;;;;;;;6.93;4.38;;;20.40;57.40;;;;;;6145203;28;87795;-56
2022/09/21 01:39:31;;;;;;;8.13;4.53;;;20.40;57.30;;;;;;6145948;28;80393;-57
2022/09/21 01:42:31;;;;;;;7.82;4.65;;;20.40;57.40;;;;;;6151195;28;80996;-58
2022/09/21 01:45:32;;;;;;;6.15;4.05;;;20.40;57.30;;;;;;6150263;28;80400;-59
2022/09/21 01:48:34;;;;;;;7.35;4.32;;;20.40;58.00;;;;;;6137597;28;83577;-56
2022/09/21 01:51:34;;;;;;;7.68;4.70;;;20.40;57.30;;;;;;6130542;28;80639;-58
2022/09/21 01:54:35;;;;;;;8.90;4.70;;;20.40;57.30;;;;;;6127233;28;80479;-57
2022/09/21 01:57:35;;;;;;;6.18;4.03;;;20.40;57.30;;;;;;6136722;28;81118;-56
2022/09/21 02:00:35;;;;;;;7.07;4.40;;;20.40;57.30;;;;;;6129498;28;80828;-57
2022/09/21 02:03:36;;;;;;;9.55;4.72;;;20.40;57.30;;;;;;6149518;28;82175;-57
2022/09/21 02:06:36;;;;;;;7.90;4.47;;;20.40;57.30;;;;;;6136518;28;80777;-57
2022/09/21 02:09:37;;;;;;;7.82;5.05;;;20.40;57.20;;;;;;6149092;28;86522;-58
2022/09/21 02:12:38;;;;;;;8.13;4.25;;;20.40;57.30;;;;;;6141603;28;80435;-57
2022/09/21 02:15:38;;;;;;;9.15;4.13;;;20.40;57.20;;;;;;6162691;28;87109;-58
2022/09/21 02:18:39;;;;;;;8.57;3.95;;;20.40;57.30;;;;;;6173622;28;82170;-57
2022/09/21 02:21:40;;;;;;;6.95;4.28;;;20.40;57.30;;;;;;6174076;28;83675;-56
2022/09/21 02:24:41;;;;;;;6.63;4.05;;;20.40;57.30;;;;;;6171011;28;80617;-58
2022/09/21 02:27:41;;;;;;;7.28;4.00;;;20.40;57.30;;;;;;6164284;28;80648;-58
2022/09/21 02:30:42;;;;;;;6.78;3.90;;;20.40;57.30;;;;;;6162704;28;80346;-59
2022/09/21 02:33:44;;;;;;;7.03;4.10;;;20.40;57.30;;;;;;6152881;28;80551;-59
2022/09/21 02:36:44;;;;;;;9.23;3.92;;;20.40;57.40;;;;;;6170140;28;80443;-58
2022/09/21 02:39:45;;;;;;;10.38;4.88;;;20.40;57.30;;;;;;6172162;28;80856;-58
2022/09/21 02:42:46;;;;;;;6.45;4.03;;;20.40;57.40;;;;;;6172441;28;83489;-59
2022/09/21 02:45:46;;;;;;;9.25;4.93;;;20.40;57.40;;;;;;6172220;28;80598;-58
2022/09/21 02:48:47;;;;;;;5.10;3.50;;;20.40;57.40;;;;;;6164098;28;80010;-57
2022/09/21 02:51:47;;;;;;;10.05;4.78;;;20.40;57.40;;;;;;6167725;28;80375;-57
2022/09/21 02:54:47;;;;;;;10.52;4.63;;;20.40;57.30;;;;;;6160295;28;80607;-58
2022/09/21 02:57:48;;;;;;;6.07;4.13;;;20.40;57.60;;;;;;6165883;28;86522;-58
2022/09/21 03:00:48;;;;;;;8.57;4.50;;;20.30;57.30;;;;;;6166544;28;80351;-58
2022/09/21 03:03:49;;;;;;;6.72;4.30;;;20.40;57.40;;;;;;6170022;28;85731;-59
2022/09/21 03:06:50;;;;;;;8.80;4.07;;;20.40;57.40;;;;;;6173003;28;81354;-59
2022/09/21 03:09:50;;;;;;;6.43;4.45;;;20.40;57.40;;;;;;6166063;28;80481;-56
2022/09/21 03:12:51;;;;;;;5.88;4.03;;;20.40;57.40;;;;;;6170435;28;81474;-58
2022/09/21 03:15:52;;;;;;;6.55;4.13;;;20.30;57.30;;;;;;6178465;28;80834;-57
2022/09/21 03:18:52;;;;;;;8.55;4.18;;;20.40;57.40;;;;;;6173233;28;86235;-58
2022/09/21 03:21:53;;;;;;;7.60;3.97;;;20.40;57.30;;;;;;6177217;28;80402;-57
2022/09/21 03:24:56;;;;;;;5.85;4.25;;;20.40;57.30;;;;;;6160976;28;83611;-55
2022/09/21 03:27:56;;;;;;;8.23;4.10;;;20.30;57.20;;;;;;6154121;28;80989;-58
2022/09/21 03:30:57;;;;;;;8.02;4.85;;;20.30;57.20;;;;;;6152911;28;84239;-58
2022/09/21 03:33:57;;;;;;;10.82;5.13;;;20.30;57.20;;;;;;6162808;28;80127;-58
2022/09/21 03:36:59;;;;;;;7.18;4.38;;;20.30;57.20;;;;;;6177917;28;80927;-58
2022/09/21 03:39:59;;;;;;;7.55;4.40;;;20.30;57.20;;;;;;6173630;28;80599;-58
2022/09/21 03:43:00;;;;;;;9.00;4.07;;;20.30;57.20;;;;;;6174834;28;80523;-58
2022/09/21 03:46:00;;;;;;;7.45;4.07;;;20.30;57.20;;;;;;6176017;28;81070;-58
2022/09/21 03:49:01;;;;;;;6.43;4.07;;;20.30;57.20;;;;;;6166337;28;81012;-57
2022/09/21 03:52:02;;;;;;;8.68;4.78;;;20.30;57.10;;;;;;6164814;28;80582;-58
2022/09/21 03:55:05;;;;;;;6.97;4.68;;;20.30;57.10;;;;;;6165483;28;81405;-57
2022/09/21 03:58:06;;;;;;;7.78;4.57;;;20.30;57.10;;;;;;6166660;28;80266;-57
2022/09/21 04:01:06;;;;;;;6.97;4.97;;;20.30;57.00;;;;;;6150912;28;81198;-58
2022/09/21 04:04:06;;;;;;;7.15;4.28;;;20.40;57.30;;;;;;6156033;28;83215;-59
2022/09/21 04:07:07;;;;;;;6.68;4.80;;;20.30;57.20;;;;;;6163332;28;80480;-58
2022/09/21 04:10:07;;;;;;;6.40;4.50;;;20.40;57.40;;;;;;6162680;28;87017;-60
2022/09/21 04:13:08;;;;;;;7.22;4.30;;;20.30;57.40;;;;;;6165002;28;80658;-59
2022/09/21 04:16:08;;;;;;;7.38;4.22;;;20.40;57.70;;;;;;6167955;28;80364;-59
2022/09/21 04:19:09;;;;;;;10.27;4.72;;;20.40;57.70;;;;;;6167122;28;80289;-59
2022/09/21 04:22:10;;;;;;;9.00;5.05;;;20.40;58.40;;;;;;6157959;28;80816;-64
2022/09/21 04:25:11;;;;;;;8.18;4.43;;;20.40;58.40;;;;;;6160173;28;80931;-64
2022/09/21 04:28:12;;;;;;;8.00;4.63;;;20.40;57.90;;;;;;6155822;28;80975;-64
2022/09/21 04:31:12;;;;;;;7.63;4.20;;;20.40;58.10;;;;;;6159489;28;84858;-64
2022/09/21 04:34:13;;;;;;;8.55;4.55;;;20.40;58.10;;;;;;6170501;28;80067;-64
2022/09/21 04:37:13;;;;;;;8.13;4.55;;;20.40;58.10;;;;;;6167522;28;80944;-59
2022/09/21 04:40:14;;;;;;;8.02;4.63;;;20.40;58.20;;;;;;6156058;28;85474;-58
2022/09/21 04:43:14;;;;;;;7.25;4.47;;;20.40;58.50;;;;;;6168063;28;80937;-60
2022/09/21 04:46:16;;;;;;;7.53;4.75;;;20.40;58.60;;;;;;6174082;28;80779;-59
2022/09/21 04:49:16;;;;;;;8.63;4.43;;;20.40;58.80;;;;;;6176124;28;80634;-61
2022/09/21 04:52:17;;;;;;;8.15;4.22;;;20.40;58.90;;;;;;6168254;28;85297;-59
2022/09/21 04:55:17;;;;;;;6.93;4.82;;;20.40;59.00;;;;;;6162805;28;81565;-60
2022/09/21 04:58:18;;;;;;;8.45;4.13;;;20.40;59.60;;;;;;6178139;28;80509;-53
2022/09/21 05:01:18;;;;;;;8.45;4.68;;;20.50;59.40;;;;;;6150857;28;80733;-55
2022/09/21 05:04:19;;;;;;;6.70;4.53;;;20.50;59.10;;;;;;6153541;28;85520;-55
2022/09/21 05:07:19;;;;;;;8.82;5.00;;;20.50;59.50;;;;;;6150877;28;82284;-54
2022/09/21 05:10:20;;;;;;;10.23;4.47;;;20.50;59.60;;;;;;6156564;28;80300;-48
2022/09/21 05:13:20;;;;;;;7.65;5.00;;;20.50;59.60;;;;;;6156337;28;81515;-52
2022/09/21 05:16:21;;;;;;;6.78;4.63;;;20.50;59.60;;;;;;6149305;28;80308;-59
2022/09/21 05:19:21;;;;;;;6.97;5.00;;;20.50;59.60;;;;;;6162243;28;80643;-58
2022/09/21 05:22:22;;;;;;;9.32;4.88;;;20.60;59.70;;;;;;6154668;28;80486;-59
2022/09/21 05:25:22;;;;;;;6.38;4.45;;;20.60;59.70;;;;;;6159632;28;80500;-59
2022/09/21 05:28:23;;;;;;;9.98;4.60;;;20.50;59.70;;;;;;6152214;28;80338;-59
2022/09/21 05:31:23;;;;;;;7.10;4.00;;;20.60;59.80;;;;;;6155906;28;85346;-60
2022/09/21 05:34:24;;;;;;;7.70;5.07;;;20.60;59.70;;;;;;6155414;28;80417;-49
2022/09/21 05:37:24;;;;;;;10.68;5.28;;;20.60;59.60;;;;;;6163653;28;86651;-53
2022/09/21 05:40:25;;;;;;;7.35;4.78;;;20.60;59.60;;;;;;6162827;28;80559;-53
2022/09/21 05:43:25;;;;;;;8.90;4.55;;;20.60;59.50;;;;;;6165109;28;81021;-53
2022/09/21 05:46:26;;;;;;;9.85;5.60;;;20.60;59.60;;;;;;6171421;28;80389;-55
2022/09/21 05:49:26;;;;;;;11.85;5.72;;;20.60;61.40;;;;;;6169361;28;80330;-56
2022/09/21 05:52:27;;;;;;;12.75;5.82;;;20.60;60.60;;;;;;6164347;28;80736;-59
2022/09/21 05:55:27;;;;;;;9.35;4.57;;;20.60;61.10;;;;;;6154374;28;80755;-59
2022/09/21 05:58:28;;;;;;;11.75;5.38;;;20.60;62.70;;;;;;6163695;28;84083;-59
2022/09/21 06:01:28;;;;;;;9.90;4.85;;;20.60;62.30;;;;;;6153610;28;80464;-59
2022/09/21 06:04:29;;;;;;;15.32;5.50;;;20.60;62.00;;;;;;6159784;28;81408;-59
2022/09/21 06:07:29;;;;;;;11.95;5.75;;;20.60;62.20;;;;;;6157560;28;80266;-59
2022/09/21 06:10:30;;;;;;;12.23;4.85;;;20.60;61.70;;;;;;6160104;28;80702;-60
2022/09/21 06:13:30;;;;;;;10.18;5.20;;;20.60;62.40;;;;;;6160470;28;81675;-59
2022/09/21 06:16:31;;;;;;;10.30;5.13;;;20.60;63.80;;;;;;6169542;28;80198;-59
2022/09/21 06:19:31;;;;;;;8.07;5.05;;;20.60;63.10;;;;;;6170102;28;80394;-62
2022/09/21 06:22:32;;;;;;;11.23;5.15;;;20.60;63.50;;;;;;6166502;28;81641;-59
2022/09/21 06:25:32;;;;;;;8.85;4.88;;;20.60;63.40;;;;;;6177139;28;80770;-60
2022/09/21 06:28:33;;;;;;;11.45;4.55;;;20.50;65.00;;;;;;6166023;28;86041;-59
2022/09/21 06:31:34;;;;;;;10.55;5.35;;;20.50;64.60;;;;;;6176704;28;80806;-55
2022/09/21 06:34:35;;;;;;;8.32;4.82;;;20.50;64.50;;;;;;6177647;28;80646;-62
2022/09/21 06:37:38;;;;;;;9.00;4.95;;;20.50;64.30;;;;;;6169739;28;80670;-55
2022/09/21 06:40:39;;;;;;;9.80;5.35;;;20.50;64.10;;;;;;6166248;28;80751;-53
2022/09/21 06:43:39;;;;;;;286.15;95.38;;;20.50;64.70;;;;;;6178319;28;80011;-54
2022/09/21 06:46:40;;;;;;;350.10;123.13;;;20.60;63.30;;;;;;6163593;28;85580;-54
2022/09/21 06:49:40;;;;;;;569.95;225.68;;;20.60;64.00;;;;;;6155518;28;86925;-53
2022/09/21 06:52:41;;;;;;;929.47;414.48;;;20.60;64.50;;;;;;6152331;28;86575;-54
2022/09/21 06:55:41;;;;;;;1109.95;506.00;;;20.60;64.30;;;;;;6171042;28;85779;-55
2022/09/21 06:58:42;;;;;;;989.67;446.15;;;20.60;63.60;;;;;;6163318;28;86206;-55
2022/09/21 07:01:43;;;;;;;1032.03;468.55;;;20.70;64.50;;;;;;6150687;28;85161;-54
2022/09/21 07:04:46;;;;;;;1142.28;511.92;;;20.70;64.00;;;;;;6162516;28;86278;-53
2022/09/21 07:07:46;;;;;;;1433.53;616.78;;;20.70;64.40;;;;;;6151730;28;86011;-54
2022/09/21 07:10:47;;;;;;;1689.25;685.80;;;20.70;64.60;;;;;;6154429;28;85303;-53
2022/09/21 07:13:47;;;;;;;1619.28;676.05;;;20.70;65.70;;;;;;6153266;28;85397;-52
2022/09/21 07:16:49;;;;;;;1568.78;664.65;;;20.70;65.70;;;;;;6173197;28;86920;-49
2022/09/21 07:19:49;;;;;;;1446.03;620.28;;;20.70;66.50;;;;;;6157415;28;86730;-53
2022/09/21 07:22:50;;;;;;;1298.05;577.88;;;20.70;66.00;;;;;;6152678;28;87954;-50
2022/09/21 07:25:51;;;;;;;1145.18;522.65;;;20.70;66.40;;;;;;6164500;28;85745;-59
2022/09/21 07:28:51;;;;;;;1051.30;474.15;;;20.60;65.80;;;;;;6156825;28;90700;-59
2022/09/21 07:31:52;;;;;;;1027.70;468.05;;;20.70;65.80;;;;;;6172097;28;92191;-59
2022/09/21 07:34:55;;;;;;;954.45;430.88;;;20.70;66.10;;;;;;6169651;28;86471;-62
2022/09/21 07:37:56;;;;;;;896.65;407.75;;;20.60;66.10;;;;;;6173925;28;86142;-59
2022/09/21 07:40:56;;;;;;;865.58;398.52;;;20.60;65.60;;;;;;6160800;28;87089;-60
2022/09/21 07:43:57;;;;;;;825.75;371.67;;;20.60;66.60;;;;;;6170800;28;85965;-53
2022/09/21 07:46:57;;;;;;;748.10;338.70;;;20.60;65.90;;;;;;6153828;28;85917;-54
2022/09/21 07:49:58;;;;;;;731.45;334.63;;;20.60;65.30;;;;;;6150033;28;85909;-54
2022/09/21 07:52:58;;;;;;;728.63;322.88;;;20.60;66.50;;;;;;6146305;28;87276;-54
2022/09/21 07:55:59;;;;;;;669.28;288.55;;;20.60;66.30;;;;;;6148836;28;85405;-54
2022/09/21 07:59:05;;;;;;;612.50;266.55;;;20.60;65.80;;;;;;6144930;28;85540;-54
2022/09/21 08:02:05;;;;;;;605.90;249.02;;;20.60;65.80;;;;;;6154787;28;86013;-54
2022/09/21 08:05:06;;;;;;;584.60;241.93;;;20.60;65.20;;;;;;6157777;28;86313;-51
2022/09/21 08:08:07;;;;;;;563.38;237.43;;;20.70;65.00;;;;;;6162306;28;86076;-50
2022/09/21 08:11:10;;;;;;;522.97;213.65;;;20.70;65.00;;;;;;6162564;28;86609;-54
2022/09/21 08:14:18;;;;;;;521.08;211.20;;;20.80;65.10;;;;;;6155442;28;85407;-54
2022/09/21 08:17:18;;;;;;;508.00;199.15;;;20.80;65.10;;;;;;6158446;28;85743;-54
2022/09/21 08:20:19;;;;;;;504.65;191.40;;;20.80;65.10;;;;;;6162393;28;85751;-59
2022/09/21 08:23:19;;;;;;;491.75;193.13;;;20.80;65.40;;;;;;6136771;28;86484;-59
2022/09/21 08:26:20;;;;;;;464.20;179.70;;;20.80;65.40;;;;;;6157588;28;86130;-59
2022/09/21 08:29:20;;;;;;;437.90;173.32;;;20.80;65.60;;;;;;6159455;28;87742;-59
2022/09/21 08:32:21;;;;;;;456.23;174.85;;;20.90;65.70;;;;;;6150785;28;86407;-59
2022/09/21 08:35:21;;;;;;;443.42;174.65;;;20.90;65.80;;;;;;6158235;28;86123;-58
2022/09/21 08:38:22;;;;;;;433.52;167.27;;;20.90;65.80;;;;;;6153957;28;85400;-53
2022/09/21 08:41:22;;;;;;;365.10;147.80;;;20.90;65.90;;;;;;6166487;28;87979;-53
2022/09/21 08:44:23;;;;;;;368.15;145.77;;;20.90;65.70;;;;;;6162721;28;85422;-55
2022/09/21 08:47:23;;;;;;;351.48;134.90;;;20.90;65.70;;;;;;6155494;28;85541;-56
2022/09/21 08:50:24;;;;;;;341.27;139.13;;;21.00;65.80;;;;;;6163336;28;85680;-54
2022/09/21 08:53:24;;;;;;;350.30;133.82;;;21.00;66.00;;;;;;6160996;28;86961;-50
2022/09/21 08:56:25;;;;;;;348.38;130.02;;;20.90;66.50;;;;;;6160435;28;86175;-60
2022/09/21 08:59:25;;;;;;;310.08;124.43;;;21.00;66.20;;;;;;6153741;28;91906;-61
2022/09/21 09:02:26;;;;;;;271.90;115.13;;;21.00;66.10;;;;;;6155774;28;85370;-60
2022/09/21 09:05:26;;;;;;;300.80;117.72;;;21.00;65.90;;;;;;6157135;28;86216;-60
2022/09/21 09:08:27;;;;;;;297.85;115.60;;;21.00;65.80;;;;;;6152124;28;85153;-59
2022/09/21 09:11:27;;;;;;;270.42;107.78;;;21.00;66.30;;;;;;6140128;28;86471;-59
2022/09/21 09:14:28;;;;;;;252.05;102.35;;;20.90;65.90;;;;;;6154650;28;85461;-61
2022/09/21 09:17:28;;;;;;;273.92;105.55;;;20.90;65.60;;;;;;6145056;28;87775;-59
2022/09/21 09:20:29;;;;;;;269.42;101.50;;;20.90;66.00;;;;;;6164940;28;86315;-60
2022/09/21 09:23:29;;;;;;;251.23;100.47;;;21.00;66.00;;;;;;6159892;28;89278;-60
2022/09/21 09:26:30;;;;;;;239.07;94.85;;;21.00;66.10;;;;;;6163146;28;85940;-60
2022/09/21 09:29:30;;;;;;;233.15;93.20;;;21.00;66.00;;;;;;6153971;28;85289;-61
2022/09/21 09:32:31;;;;;;;221.57;88.60;;;21.00;65.70;;;;;;6152342;28;83020;-49
2022/09/21 09:35:32;;;;;;;212.65;86.97;;;20.90;65.80;;;;;;6154420;28;85858;-52
2022/09/21 09:38:32;;;;;;;220.95;84.00;;;21.00;65.80;;;;;;6158220;28;83412;-54
2022/09/21 09:41:33;;;;;;;188.25;80.38;;;20.90;65.80;;;;;;6135390;28;83170;-54
2022/09/21 09:44:33;;;;;;;192.13;76.82;;;21.00;65.90;;;;;;6155248;28;83444;-54
2022/09/21 09:47:34;;;;;;;185.90;74.13;;;21.00;65.80;;;;;;6147445;28;86152;-52
2022/09/21 09:50:34;;;;;;;181.30;73.93;;;20.90;65.60;;;;;;6166078;28;83323;-59
2022/09/21 09:53:35;;;;;;;168.70;71.57;;;21.00;65.80;;;;;;6176686;28;87495;-59
2022/09/21 09:56:35;;;;;;;169.55;67.50;;;21.00;65.60;;;;;;6159765;28;87279;-59
2022/09/21 09:59:35;;;;;;;157.60;63.80;;;21.00;65.20;;;;;;6155536;28;82992;-59
2022/09/21 10:02:36;;;;;;;158.90;64.70;;;21.00;65.40;;;;;;6166223;28;83524;-58
2022/09/21 10:05:37;;;;;;;155.80;62.22;;;21.00;65.50;;;;;;6171521;28;86345;-53
2022/09/21 10:08:38;;;;;;;145.25;57.28;;;20.90;65.40;;;;;;6147004;28;82908;-59
2022/09/21 10:11:38;;;;;;;144.45;57.60;;;20.90;65.80;;;;;;6160189;28;83207;-58
2022/09/21 10:14:39;;;;;;;130.77;56.65;;;20.90;65.50;;;;;;6161028;28;86457;-57
2022/09/21 10:17:40;;;;;;;139.73;56.53;;;21.00;65.70;;;;;;6157723;28;83265;-58
2022/09/21 10:20:41;;;;;;;131.18;54.83;;;21.00;65.60;;;;;;6149925;28;83466;-59
2022/09/21 10:23:41;;;;;;;114.50;51.58;;;21.00;65.80;;;;;;6154080;28;83218;-59
2022/09/21 10:26:42;;;;;;;123.53;50.47;;;21.00;65.80;;;;;;6149380;28;83372;-58
2022/09/21 10:29:42;;;;;;;111.63;47.83;;;21.00;65.70;;;;;;6156103;28;83887;-58
2022/09/21 10:32:43;;;;;;;123.65;48.60;;;21.00;65.80;;;;;;6152465;28;86503;-58
2022/09/21 10:35:43;;;;;;;109.60;47.03;;;20.90;65.80;;;;;;6164909;28;83108;-59
2022/09/21 10:38:44;;;;;;;100.95;44.35;;;20.90;65.90;;;;;;6172787;28;82866;-58
2022/09/21 10:41:44;;;;;;;105.43;43.85;;;20.90;65.90;;;;;;6169230;28;83236;-56
2022/09/21 10:44:45;;;;;;;94.75;43.20;;;20.90;65.90;;;;;;6169062;28;89303;-58
2022/09/21 10:47:45;;;;;;;99.60;39.67;;;20.90;66.30;;;;;;6153359;28;84842;-57
2022/09/21 10:50:47;;;;;;;91.32;38.55;;;21.00;66.60;;;;;;6162742;28;83011;-57
2022/09/21 10:53:48;;;;;;;92.97;40.08;;;21.00;66.90;;;;;;6147501;28;83988;-56
2022/09/21 10:56:49;;;;;;;91.68;39.20;;;21.00;67.30;;;;;;6164581;28;84356;-57
2022/09/21 10:59:49;;;;;;;100.82;41.53;;;21.00;69.20;;;;;;6161007;28;83077;-56
2022/09/21 11:02:50;;;;;;;90.35;40.28;;;21.10;69.00;;;;;;6161079;28;82998;-56
2022/09/21 11:05:50;;;;;;;100.60;41.00;;;21.10;70.70;;;;;;6151188;28;83990;-55
2022/09/21 11:08:51;;;;;;;95.32;40.67;;;21.10;71.00;;;;;;6159301;28;87633;-56
2022/09/21 11:11:52;;;;;;;110.78;42.97;;;21.10;71.90;;;;;;6176596;28;83126;-57
2022/09/21 11:14:52;;;;;;;92.57;39.65;;;21.20;73.40;;;;;;6168577;28;85394;-55
2022/09/21 11:17:53;;;;;;;107.63;40.83;;;21.10;73.40;;;;;;6154477;28;83750;-56
2022/09/21 11:20:53;;;;;;;102.28;41.47;;;21.20;73.80;;;;;;6154510;28;83541;-57
2022/09/21 11:23:54;;;;;;;98.70;39.13;;;21.20;75.70;;;;;;6159862;28;83003;-56
2022/09/21 11:26:54;;;;;;;96.97;42.13;;;21.20;75.80;;;;;;6156341;28;84219;-56
2022/09/21 11:29:55;;;;;;;97.53;41.92;;;21.30;76.10;;;;;;6157384;28;84414;-57
2022/09/21 11:32:55;;;;;;;94.18;43.83;;;21.30;77.90;;;;;;6162822;28;83858;-57
2022/09/21 11:35:57;;;;;;;100.50;43.08;;;21.30;77.30;;;;;;6174064;28;83988;-55
2022/09/21 11:38:58;;;;;;;96.35;41.85;;;21.30;78.30;;;;;;6166565;28;82969;-56
2022/09/21 11:41:59;;;;;;;86.75;40.70;;;21.30;78.90;;;;;;6166506;28;83426;-60
2022/09/21 11:44:59;;;;;;;92.55;38.53;;;21.30;78.70;;;;;;6166179;28;83070;-60
2022/09/21 11:48:00;;;;;;;81.03;39.45;;;21.20;78.90;;;;;;6170644;28;83106;-60
2022/09/21 11:51:01;;;;;;;81.90;40.13;;;21.30;79.10;;;;;;6162271;28;82975;-60
2022/09/21 11:54:03;;;;;;;90.82;42.33;;;21.30;78.70;;;;;;6161039;28;84529;-58
2022/09/21 11:57:04;;;;;;;82.68;37.85;;;21.40;78.30;;;;;;6154264;28;84311;-60
2022/09/21 12:00:04;;;;;;;76.32;36.53;;;21.50;76.90;;;;;;6157717;28;82605;-67
2022/09/21 12:03:05;;;;;;;75.25;35.75;;;21.60;76.80;;;;;;6161210;28;85279;-64
2022/09/21 12:06:06;;;;;;;67.88;34.78;;;21.70;75.20;;;;;;6149572;28;83006;-61
2022/09/21 12:09:06;;;;;;;59.50;28.42;;;21.70;74.70;;;;;;6152999;28;83511;-61
2022/09/21 12:12:07;;;;;;;54.55;25.02;;;21.70;72.80;;;;;;6152573;28;85124;-60
2022/09/21 12:15:08;;;;;;;43.92;21.17;;;21.70;71.90;;;;;;6155267;28;83381;-59
2022/09/21 12:18:09;;;;;;;46.47;19.90;;;21.70;70.60;;;;;;6161588;28;88462;-60
2022/09/21 12:21:10;;;;;;;41.05;19.60;;;21.80;69.90;;;;;;6153733;28;82983;-60
2022/09/21 12:24:11;;;;;;;34.97;17.63;;;21.80;68.90;;;;;;6155866;28;83252;-61
2022/09/21 12:27:11;;;;;;;36.97;15.27;;;21.80;68.50;;;;;;6154230;28;87233;-60
2022/09/21 12:30:12;;;;;;;31.65;14.60;;;21.80;67.80;;;;;;6161776;28;83133;-60
2022/09/21 12:33:13;;;;;;;30.50;14.68;;;21.80;66.10;;;;;;6154822;28;87580;-60
2022/09/21 12:36:15;;;;;;;23.77;12.80;;;21.90;65.80;;;;;;6163765;28;88044;-61
2022/09/21 12:39:16;;;;;;;21.75;11.38;;;21.90;65.40;;;;;;6156282;28;83115;-60
2022/09/21 12:42:17;;;;;;;21.00;10.93;;;21.80;65.50;;;;;;6161249;28;83337;-61
2022/09/21 12:45:18;;;;;;;19.40;10.65;;;21.80;64.90;;;;;;6156885;28;84005;-61
2022/09/21 12:48:18;;;;;;;18.10;9.57;;;21.70;64.90;;;;;;6156613;28;83125;-60
2022/09/21 12:51:21;;;;;;;16.08;8.85;;;21.70;64.50;;;;;;6150918;28;83018;-61
2022/09/21 12:54:21;;;;;;;20.33;10.40;;;21.70;64.50;;;;;;6171100;28;80520;-58
2022/09/21 12:57:23;;;;;;;22.48;9.80;;;21.70;65.20;;;;;;6158502;28;86053;-57
2022/09/21 13:00:24;;;;;;;16.25;8.90;;;21.70;65.60;;;;;;6155857;28;81858;-58
2022/09/21 13:03:24;;;;;;;14.90;8.13;;;21.70;66.10;;;;;;6146980;28;80756;-61
2022/09/21 13:06:25;;;;;;;18.10;9.55;;;21.70;66.10;;;;;;6142347;28;83246;-58
2022/09/21 13:09:26;;;;;;;13.70;7.55;;;21.70;66.20;;;;;;6142077;28;85454;-64
2022/09/21 13:12:26;;;;;;;14.90;7.80;;;21.70;66.10;;;;;;6165286;28;80755;-65
2022/09/21 13:15:27;;;;;;;15.45;7.32;;;21.70;66.50;;;;;;6145050;28;80284;-62
2022/09/21 13:18:27;;;;;;;11.43;6.88;;;21.70;65.90;;;;;;6134669;28;88109;-58
2022/09/21 13:21:31;;;;;;;12.90;7.45;;;21.70;65.80;;;;;;6146018;28;80380;-60
2022/09/21 13:24:31;;;;;;;17.60;7.95;;;21.80;65.70;;;;;;6154786;28;83617;-54
2022/09/21 13:27:32;;;;;;;11.30;6.85;;;21.70;65.70;;;;;;6158657;28;80328;-52
2022/09/21 13:30:32;;;;;;;27.60;6.80;;;21.80;65.50;;;;;;6159105;28;86116;-54
2022/09/21 13:33:33;;;;;;;13.48;6.68;;;21.70;65.50;;;;;;6176596;28;80379;-55
2022/09/21 13:36:34;;;;;;;10.82;6.68;;;21.70;65.70;;;;;;6174127;28;85907;-59
2022/09/21 13:39:34;;;;;;;12.52;6.15;;;21.80;65.40;;;;;;6173270;28;82537;-57
2022/09/21 13:42:35;;;;;;;9.35;6.00;;;21.70;65.20;;;;;;6165975;28;85833;-56
2022/09/21 13:45:35;;;;;;;76.18;30.45;;;21.70;65.40;;;;;;6169955;28;81315;-58
2022/09/21 13:48:36;;;;;;;433.67;183.82;;;21.70;65.50;;;;;;6166850;28;89505;-56
2022/09/21 13:51:36;;;;;;;437.50;196.30;;;21.70;65.70;;;;;;6166117;28;87478;-57
2022/09/21 13:54:37;;;;;;;342.65;140.23;;;21.70;65.50;;;;;;6161992;28;85520;-55
2022/09/21 13:57:37;;;;;;;301.02;127.88;;;21.70;65.40;;;;;;6168136;28;85316;-54
2022/09/21 14:00:38;;;;;;;393.10;160.45;;;21.60;65.70;;;;;;6156977;28;88979;-55
2022/09/21 14:03:38;;;;;;;490.73;223.48;;;21.60;65.80;;;;;;6163481;28;85336;-55
2022/09/21 14:06:39;;;;;;;497.83;223.77;;;21.60;66.40;;;;;;6161150;28;89517;-56
2022/09/21 14:09:39;;;;;;;438.52;190.80;;;21.50;67.00;;;;;;6146428;28;85864;-55
2022/09/21 14:12:41;;;;;;;396.73;160.88;;;21.50;66.80;;;;;;6159433;28;87158;-55
2022/09/21 14:15:42;;;;;;;366.63;154.63;;;21.60;67.10;;;;;;6154448;28;86574;-55
2022/09/21 14:18:45;;;;;;;297.00;127.93;;;21.60;67.80;;;;;;6167278;28;85422;-55
2022/09/21 14:21:45;;;;;;;295.70;125.55;;;21.60;68.20;;;;;;6151212;28;86686;-55
2022/09/21 14:24:46;;;;;;;252.48;106.93;;;21.70;67.90;;;;;;6170976;28;85452;-55
2022/09/21 14:27:47;;;;;;;206.73;88.88;;;21.70;67.90;;;;;;6163370;28;87113;-54
2022/09/21 14:30:48;;;;;;;194.80;83.43;;;21.70;67.10;;;;;;6171921;28;85240;-56
2022/09/21 14:33:48;;;;;;;191.90;82.30;;;21.70;66.90;;;;;;6158236;28;82935;-57
2022/09/21 14:36:49;;;;;;;172.63;74.43;;;21.70;66.80;;;;;;6154514;28;86233;-56
2022/09/21 14:39:49;;;;;;;148.15;64.47;;;21.70;66.60;;;;;;6164010;28;83965;-53
2022/09/21 14:42:50;;;;;;;148.57;65.47;;;21.70;66.40;;;;;;6153015;28;85344;-55
2022/09/21 14:45:54;;;;;;;135.32;57.42;;;21.70;66.70;;;;;;6169240;28;85031;-57
2022/09/21 14:48:55;;;;;;;130.40;53.83;;;21.60;66.80;;;;;;6165651;28;83182;-57
2022/09/21 14:51:55;;;;;;;117.85;50.47;;;21.60;66.50;;;;;;6149966;28;87087;-58
2022/09/21 14:54:56;;;;;;;123.07;49.70;;;21.50;66.60;;;;;;6165141;28;82788;-57
2022/09/21 14:57:56;;;;;;;119.20;48.33;;;21.50;66.40;;;;;;6160652;28;83171;-58
2022/09/21 15:00:58;;;;;;;100.28;41.13;;;21.50;66.30;;;;;;6168697;28;83578;-53
2022/09/21 15:03:58;;;;;;;97.18;39.45;;;21.50;66.20;;;;;;6158993;28;83706;-56
2022/09/21 15:13:37;;;;;;;82.78;33.78;;;21.40;66.10;;;;;;6159725;28;85413;-55
2022/09/21 15:16:38;;;;;;;59.70;27.48;;;21.40;66.00;;;;;;6136950;28;83690;-57
2022/09/21 15:19:38;;;;;;;65.32;28.23;;;21.40;65.80;;;;;;6141539;28;83586;-56
2022/09/21 15:22:39;;;;;;;59.60;27.25;;;21.40;65.80;;;;;;6143635;28;82975;-50